sensor_id;sensor_type;location;lat;lon;timestamp;P1;durP1;ratioP1;P2;durP2;ratioP2
74124;SDS011;62475;52.192;5.396;2022-12-18T00:01:03;77.00;;;26.15;;
74124;SDS011;62475;52.192;5.396;2022-12-18T00:03:34;66.38;;;20.05;;
74124;SDS011;62475;52.192;5.396;2022-12-18T00:06:00;63.58;;;18.75;;
74124;SDS011;62475;52.192;5.396;2022-12-18T00:08:27;70.10;;;20.88;;
74124;SDS011;62475;52.192;5.396;2022-12-18T00:10:52;77.30;;;22.00;;
74124;SDS011;62475;52.192;5.396;2022-12-18T00:13:18;80.85;;;24.92;;
74124;SDS011;62475;52.192;5.396;2022-12-18T00:15:45;81.78;;;24.38;;
74124;SDS011;62475;52.192;5.396;2022-12-18T00:18:11;95.57;;;25.25;;
74124;SDS011;62475;52.192;5.396;2022-12-18T00:20:37;68.60;;;22.90;;
74124;SDS011;62475;52.192;5.396;2022-12-18T00:23:03;73.25;;;23.15;;
74124;SDS011;62475;52.192;5.396;2022-12-18T00:25:32;73.47;;;20.75;;
74124;SDS011;62475;52.192;5.396;2022-12-18T00:27:59;89.63;;;25.65;;
74124;SDS011;62475;52.192;5.396;2022-12-18T00:30:24;58.65;;;18.80;;
74124;SDS011;62475;52.192;5.396;2022-12-18T00:32:52;63.17;;;23.63;;
74124;SDS011;62475;52.192;5.396;2022-12-18T00:35:19;83.85;;;23.52;;
74124;SDS011;62475;52.192;5.396;2022-12-18T00:37:44;72.95;;;21.85;;
74124;SDS011;62475;52.192;5.396;2022-12-18T00:40:10;81.50;;;24.40;;
74124;SDS011;62475;52.192;5.396;2022-12-18T00:42:36;71.82;;;20.17;;
74124;SDS011;62475;52.192;5.396;2022-12-18T00:45:19;80.20;;;26.30;;
74124;SDS011;62475;52.192;5.396;2022-12-18T00:47:45;70.43;;;22.70;;
74124;SDS011;62475;52.192;5.396;2022-12-18T00:50:11;73.72;;;22.35;;
74124;SDS011;62475;52.192;5.396;2022-12-18T00:52:36;65.93;;;21.08;;
74124;SDS011;62475;52.192;5.396;2022-12-18T00:55:01;73.95;;;22.65;;
74124;SDS011;62475;52.192;5.396;2022-12-18T00:57:27;72.00;;;23.13;;
74124;SDS011;62475;52.192;5.396;2022-12-18T00:59:52;87.82;;;25.60;;
74124;SDS011;62475;52.192;5.396;2022-12-18T01:02:18;80.40;;;21.77;;
74124;SDS011;62475;52.192;5.396;2022-12-18T01:04:43;90.70;;;23.75;;
74124;SDS011;62475;52.192;5.396;2022-12-18T01:07:09;68.32;;;23.52;;
74124;SDS011;62475;52.192;5.396;2022-12-18T01:09:34;80.45;;;24.38;;
74124;SDS011;62475;52.192;5.396;2022-12-18T01:11:59;78.10;;;23.83;;
74124;SDS011;62475;52.192;5.396;2022-12-18T01:14:25;66.60;;;21.17;;
74124;SDS011;62475;52.192;5.396;2022-12-18T01:16:51;81.80;;;22.88;;
74124;SDS011;62475;52.192;5.396;2022-12-18T01:19:16;75.82;;;23.70;;
74124;SDS011;62475;52.192;5.396;2022-12-18T01:21:41;69.90;;;21.75;;
74124;SDS011;62475;52.192;5.396;2022-12-18T01:24:07;84.15;;;24.95;;
74124;SDS011;62475;52.192;5.396;2022-12-18T01:26:36;74.00;;;22.13;;
74124;SDS011;62475;52.192;5.396;2022-12-18T01:29:02;87.63;;;26.98;;
74124;SDS011;62475;52.192;5.396;2022-12-18T01:31:29;77.35;;;27.10;;
74124;SDS011;62475;52.192;5.396;2022-12-18T01:33:57;80.18;;;23.40;;
74124;SDS011;62475;52.192;5.396;2022-12-18T01:36:27;88.32;;;25.45;;
74124;SDS011;62475;52.192;5.396;2022-12-18T01:38:54;73.18;;;22.13;;
74124;SDS011;62475;52.192;5.396;2022-12-18T01:41:22;87.15;;;24.25;;
74124;SDS011;62475;52.192;5.396;2022-12-18T01:46:20;59.33;;;15.60;;
74124;SDS011;62475;52.192;5.396;2022-12-18T01:48:48;77.55;;;25.52;;
74124;SDS011;62475;52.192;5.396;2022-12-18T01:51:16;82.18;;;26.63;;
74124;SDS011;62475;52.192;5.396;2022-12-18T01:53:42;71.60;;;22.38;;
74124;SDS011;62475;52.192;5.396;2022-12-18T01:56:11;81.22;;;22.75;;
74124;SDS011;62475;52.192;5.396;2022-12-18T01:58:56;72.15;;;24.98;;
74124;SDS011;62475;52.192;5.396;2022-12-18T02:01:28;69.47;;;21.92;;
74124;SDS011;62475;52.192;5.396;2022-12-18T02:03:55;67.88;;;19.80;;
74124;SDS011;62475;52.192;5.396;2022-12-18T02:06:24;59.03;;;20.23;;
74124;SDS011;62475;52.192;5.396;2022-12-18T02:11:37;79.32;;;24.90;;
74124;SDS011;62475;52.192;5.396;2022-12-18T02:19:29;69.97;;;22.77;;
74124;SDS011;62475;52.192;5.396;2022-12-18T02:27:45;78.70;;;23.27;;
74124;SDS011;62475;52.192;5.396;2022-12-18T02:30:14;63.65;;;21.52;;
74124;SDS011;62475;52.192;5.396;2022-12-18T02:32:42;67.15;;;22.05;;
74124;SDS011;62475;52.192;5.396;2022-12-18T02:35:12;71.15;;;22.95;;
74124;SDS011;62475;52.192;5.396;2022-12-18T02:37:42;67.35;;;21.35;;
74124;SDS011;62475;52.192;5.396;2022-12-18T02:40:10;55.55;;;20.20;;
74124;SDS011;62475;52.192;5.396;2022-12-18T02:42:37;54.50;;;18.70;;
74124;SDS011;62475;52.192;5.396;2022-12-18T02:45:03;55.30;;;19.42;;
74124;SDS011;62475;52.192;5.396;2022-12-18T02:47:29;57.58;;;19.17;;
74124;SDS011;62475;52.192;5.396;2022-12-18T02:50:44;59.42;;;19.85;;
74124;SDS011;62475;52.192;5.396;2022-12-18T02:55:40;60.92;;;19.13;;
74124;SDS011;62475;52.192;5.396;2022-12-18T03:01:15;59.10;;;19.60;;
74124;SDS011;62475;52.192;5.396;2022-12-18T03:03:52;48.50;;;18.58;;
74124;SDS011;62475;52.192;5.396;2022-12-18T03:08:51;68.05;;;20.52;;
74124;SDS011;62475;52.192;5.396;2022-12-18T03:11:21;59.35;;;20.98;;
74124;SDS011;62475;52.192;5.396;2022-12-18T03:14:08;45.50;;;17.38;;
74124;SDS011;62475;52.192;5.396;2022-12-18T03:16:36;53.15;;;18.10;;
74124;SDS011;62475;52.192;5.396;2022-12-18T03:19:10;61.63;;;22.17;;
74124;SDS011;62475;52.192;5.396;2022-12-18T03:21:42;51.83;;;19.25;;
74124;SDS011;62475;52.192;5.396;2022-12-18T03:26:44;45.53;;;18.75;;
74124;SDS011;62475;52.192;5.396;2022-12-18T03:29:19;43.80;;;17.83;;
74124;SDS011;62475;52.192;5.396;2022-12-18T03:31:55;50.15;;;18.05;;
74124;SDS011;62475;52.192;5.396;2022-12-18T03:34:31;45.28;;;17.25;;
74124;SDS011;62475;52.192;5.396;2022-12-18T03:36:59;57.83;;;18.48;;
74124;SDS011;62475;52.192;5.396;2022-12-18T03:39:28;55.65;;;19.80;;
74124;SDS011;62475;52.192;5.396;2022-12-18T03:47:16;50.20;;;17.00;;
74124;SDS011;62475;52.192;5.396;2022-12-18T03:55:22;41.53;;;16.17;;
74124;SDS011;62475;52.192;5.396;2022-12-18T03:57:50;46.85;;;17.08;;
74124;SDS011;62475;52.192;5.396;2022-12-18T04:00:17;58.13;;;18.02;;
74124;SDS011;62475;52.192;5.396;2022-12-18T04:02:45;49.10;;;17.10;;
74124;SDS011;62475;52.192;5.396;2022-12-18T04:05:15;36.95;;;14.65;;
74124;SDS011;62475;52.192;5.396;2022-12-18T04:07:43;50.45;;;18.75;;
74124;SDS011;62475;52.192;5.396;2022-12-18T04:10:11;37.70;;;14.95;;
74124;SDS011;62475;52.192;5.396;2022-12-18T04:12:37;44.75;;;17.25;;
74124;SDS011;62475;52.192;5.396;2022-12-18T04:15:03;41.03;;;16.85;;
74124;SDS011;62475;52.192;5.396;2022-12-18T04:17:29;44.17;;;15.60;;
74124;SDS011;62475;52.192;5.396;2022-12-18T04:19:55;42.90;;;16.25;;
74124;SDS011;62475;52.192;5.396;2022-12-18T04:22:20;31.30;;;14.48;;
74124;SDS011;62475;52.192;5.396;2022-12-18T04:24:46;43.80;;;15.57;;
74124;SDS011;62475;52.192;5.396;2022-12-18T04:27:11;36.53;;;15.43;;
74124;SDS011;62475;52.192;5.396;2022-12-18T04:29:38;34.25;;;15.75;;
74124;SDS011;62475;52.192;5.396;2022-12-18T04:32:03;38.80;;;15.63;;
74124;SDS011;62475;52.192;5.396;2022-12-18T04:34:29;38.70;;;14.57;;
74124;SDS011;62475;52.192;5.396;2022-12-18T04:36:54;31.75;;;13.80;;
74124;SDS011;62475;52.192;5.396;2022-12-18T04:39:19;41.22;;;16.08;;
74124;SDS011;62475;52.192;5.396;2022-12-18T04:41:45;36.08;;;14.98;;
74124;SDS011;62475;52.192;5.396;2022-12-18T04:44:10;31.88;;;12.43;;
74124;SDS011;62475;52.192;5.396;2022-12-18T04:46:35;39.70;;;15.10;;
74124;SDS011;62475;52.192;5.396;2022-12-18T04:49:01;32.08;;;14.30;;
74124;SDS011;62475;52.192;5.396;2022-12-18T04:51:26;33.55;;;14.32;;
74124;SDS011;62475;52.192;5.396;2022-12-18T04:53:53;29.33;;;12.80;;
74124;SDS011;62475;52.192;5.396;2022-12-18T04:56:20;26.75;;;12.32;;
74124;SDS011;62475;52.192;5.396;2022-12-18T04:58:46;31.08;;;14.30;;
74124;SDS011;62475;52.192;5.396;2022-12-18T05:01:14;38.78;;;13.95;;
74124;SDS011;62475;52.192;5.396;2022-12-18T05:03:41;31.73;;;13.48;;
74124;SDS011;62475;52.192;5.396;2022-12-18T05:06:07;26.50;;;11.95;;
74124;SDS011;62475;52.192;5.396;2022-12-18T05:08:33;30.40;;;14.45;;
74124;SDS011;62475;52.192;5.396;2022-12-18T05:10:59;28.63;;;12.95;;
74124;SDS011;62475;52.192;5.396;2022-12-18T05:13:28;30.75;;;12.90;;
74124;SDS011;62475;52.192;5.396;2022-12-18T05:15:54;27.42;;;11.65;;
74124;SDS011;62475;52.192;5.396;2022-12-18T05:18:20;28.13;;;9.07;;
74124;SDS011;62475;52.192;5.396;2022-12-18T05:20:46;30.35;;;11.85;;
74124;SDS011;62475;52.192;5.396;2022-12-18T05:23:11;30.42;;;12.88;;
74124;SDS011;62475;52.192;5.396;2022-12-18T05:25:38;34.25;;;14.48;;
74124;SDS011;62475;52.192;5.396;2022-12-18T05:28:03;29.25;;;12.85;;
74124;SDS011;62475;52.192;5.396;2022-12-18T05:30:28;30.48;;;12.80;;
74124;SDS011;62475;52.192;5.396;2022-12-18T05:32:54;28.92;;;10.82;;
74124;SDS011;62475;52.192;5.396;2022-12-18T05:35:19;27.10;;;11.30;;
74124;SDS011;62475;52.192;5.396;2022-12-18T05:37:45;30.20;;;11.98;;
74124;SDS011;62475;52.192;5.396;2022-12-18T05:40:10;28.67;;;11.93;;
74124;SDS011;62475;52.192;5.396;2022-12-18T05:42:36;25.75;;;13.90;;
74124;SDS011;62475;52.192;5.396;2022-12-18T05:45:02;26.13;;;12.02;;
74124;SDS011;62475;52.192;5.396;2022-12-18T05:47:28;26.50;;;9.57;;
74124;SDS011;62475;52.192;5.396;2022-12-18T05:49:54;29.55;;;12.68;;
74124;SDS011;62475;52.192;5.396;2022-12-18T05:52:20;23.35;;;11.70;;
74124;SDS011;62475;52.192;5.396;2022-12-18T05:54:45;26.88;;;12.52;;
74124;SDS011;62475;52.192;5.396;2022-12-18T05:57:11;27.67;;;11.87;;
74124;SDS011;62475;52.192;5.396;2022-12-18T05:59:36;28.55;;;11.98;;
74124;SDS011;62475;52.192;5.396;2022-12-18T06:02:01;21.30;;;11.27;;
74124;SDS011;62475;52.192;5.396;2022-12-18T06:04:32;32.58;;;11.90;;
74124;SDS011;62475;52.192;5.396;2022-12-18T06:06:58;23.33;;;11.55;;
74124;SDS011;62475;52.192;5.396;2022-12-18T06:09:24;24.05;;;9.68;;
74124;SDS011;62475;52.192;5.396;2022-12-18T06:11:51;34.58;;;12.43;;
74124;SDS011;62475;52.192;5.396;2022-12-18T06:14:16;31.05;;;11.63;;
74124;SDS011;62475;52.192;5.396;2022-12-18T06:16:42;24.88;;;11.38;;
74124;SDS011;62475;52.192;5.396;2022-12-18T06:19:07;21.10;;;10.90;;
74124;SDS011;62475;52.192;5.396;2022-12-18T06:21:33;29.43;;;11.83;;
74124;SDS011;62475;52.192;5.396;2022-12-18T06:23:59;25.52;;;12.13;;
74124;SDS011;62475;52.192;5.396;2022-12-18T06:26:24;25.15;;;9.65;;
74124;SDS011;62475;52.192;5.396;2022-12-18T06:28:50;22.48;;;9.20;;
74124;SDS011;62475;52.192;5.396;2022-12-18T06:31:17;27.90;;;12.20;;
74124;SDS011;62475;52.192;5.396;2022-12-18T06:33:42;35.17;;;13.68;;
74124;SDS011;62475;52.192;5.396;2022-12-18T06:36:09;25.77;;;11.93;;
74124;SDS011;62475;52.192;5.396;2022-12-18T06:38:37;27.20;;;11.70;;
74124;SDS011;62475;52.192;5.396;2022-12-18T06:41:08;27.90;;;11.30;;
74124;SDS011;62475;52.192;5.396;2022-12-18T06:43:35;21.88;;;10.20;;
74124;SDS011;62475;52.192;5.396;2022-12-18T06:46:01;33.67;;;11.50;;
74124;SDS011;62475;52.192;5.396;2022-12-18T06:48:28;25.38;;;11.48;;
74124;SDS011;62475;52.192;5.396;2022-12-18T06:50:54;24.63;;;10.98;;
74124;SDS011;62475;52.192;5.396;2022-12-18T06:53:19;27.05;;;11.18;;
74124;SDS011;62475;52.192;5.396;2022-12-18T06:55:44;33.80;;;13.13;;
74124;SDS011;62475;52.192;5.396;2022-12-18T06:58:10;26.33;;;12.68;;
74124;SDS011;62475;52.192;5.396;2022-12-18T07:00:35;25.88;;;10.85;;
74124;SDS011;62475;52.192;5.396;2022-12-18T07:03:01;27.85;;;11.30;;
74124;SDS011;62475;52.192;5.396;2022-12-18T07:05:26;22.98;;;10.82;;
74124;SDS011;62475;52.192;5.396;2022-12-18T07:07:51;26.58;;;10.73;;
74124;SDS011;62475;52.192;5.396;2022-12-18T07:10:17;23.83;;;10.70;;
74124;SDS011;62475;52.192;5.396;2022-12-18T07:12:42;23.67;;;10.57;;
74124;SDS011;62475;52.192;5.396;2022-12-18T07:15:08;27.63;;;11.68;;
74124;SDS011;62475;52.192;5.396;2022-12-18T07:17:33;24.65;;;10.77;;
74124;SDS011;62475;52.192;5.396;2022-12-18T07:19:59;25.05;;;11.13;;
74124;SDS011;62475;52.192;5.396;2022-12-18T07:22:24;21.63;;;9.45;;
74124;SDS011;62475;52.192;5.396;2022-12-18T07:24:51;26.30;;;12.30;;
74124;SDS011;62475;52.192;5.396;2022-12-18T07:27:16;28.52;;;11.50;;
74124;SDS011;62475;52.192;5.396;2022-12-18T07:29:41;24.08;;;10.23;;
74124;SDS011;62475;52.192;5.396;2022-12-18T07:32:07;17.13;;;10.50;;
74124;SDS011;62475;52.192;5.396;2022-12-18T07:34:33;25.67;;;11.60;;
74124;SDS011;62475;52.192;5.396;2022-12-18T07:36:59;27.58;;;12.52;;
74124;SDS011;62475;52.192;5.396;2022-12-18T07:39:24;23.02;;;12.02;;
74124;SDS011;62475;52.192;5.396;2022-12-18T07:41:50;26.27;;;10.07;;
74124;SDS011;62475;52.192;5.396;2022-12-18T07:44:33;25.00;;;10.43;;
74124;SDS011;62475;52.192;5.396;2022-12-18T07:46:59;14.45;;;6.88;;
74124;SDS011;62475;52.192;5.396;2022-12-18T07:49:24;27.00;;;11.38;;
74124;SDS011;62475;52.192;5.396;2022-12-18T07:51:49;22.23;;;10.48;;
74124;SDS011;62475;52.192;5.396;2022-12-18T07:54:15;25.17;;;10.02;;
74124;SDS011;62475;52.192;5.396;2022-12-18T07:56:40;22.13;;;11.32;;
74124;SDS011;62475;52.192;5.396;2022-12-18T07:59:05;21.50;;;11.30;;
74124;SDS011;62475;52.192;5.396;2022-12-18T08:01:31;20.85;;;10.57;;
74124;SDS011;62475;52.192;5.396;2022-12-18T08:03:57;24.73;;;11.18;;
74124;SDS011;62475;52.192;5.396;2022-12-18T08:06:23;23.23;;;11.57;;
74124;SDS011;62475;52.192;5.396;2022-12-18T08:08:48;26.03;;;12.87;;
74124;SDS011;62475;52.192;5.396;2022-12-18T08:11:15;26.85;;;10.93;;
74124;SDS011;62475;52.192;5.396;2022-12-18T08:13:40;27.95;;;11.55;;
74124;SDS011;62475;52.192;5.396;2022-12-18T08:16:06;26.60;;;11.17;;
74124;SDS011;62475;52.192;5.396;2022-12-18T08:18:34;25.42;;;12.13;;
74124;SDS011;62475;52.192;5.396;2022-12-18T08:23:54;25.90;;;11.52;;
74124;SDS011;62475;52.192;5.396;2022-12-18T08:26:21;28.30;;;10.95;;
74124;SDS011;62475;52.192;5.396;2022-12-18T08:28:47;25.38;;;11.38;;
74124;SDS011;62475;52.192;5.396;2022-12-18T08:31:15;25.27;;;10.75;;
74124;SDS011;62475;52.192;5.396;2022-12-18T08:33:40;23.92;;;11.18;;
74124;SDS011;62475;52.192;5.396;2022-12-18T08:36:06;19.95;;;11.50;;
74124;SDS011;62475;52.192;5.396;2022-12-18T08:38:33;21.83;;;10.27;;
74124;SDS011;62475;52.192;5.396;2022-12-18T08:41:00;24.50;;;11.73;;
74124;SDS011;62475;52.192;5.396;2022-12-18T08:43:25;21.25;;;9.82;;
74124;SDS011;62475;52.192;5.396;2022-12-18T08:46:10;16.10;;;9.18;;
74124;SDS011;62475;52.192;5.396;2022-12-18T08:48:35;19.83;;;9.95;;
74124;SDS011;62475;52.192;5.396;2022-12-18T08:51:01;21.50;;;10.98;;
74124;SDS011;62475;52.192;5.396;2022-12-18T08:53:26;20.73;;;9.98;;
74124;SDS011;62475;52.192;5.396;2022-12-18T08:55:52;21.63;;;10.30;;
74124;SDS011;62475;52.192;5.396;2022-12-18T08:58:18;28.05;;;11.60;;
74124;SDS011;62475;52.192;5.396;2022-12-18T09:00:44;24.20;;;11.18;;
74124;SDS011;62475;52.192;5.396;2022-12-18T09:03:11;22.63;;;11.38;;
74124;SDS011;62475;52.192;5.396;2022-12-18T09:05:41;17.73;;;9.25;;
74124;SDS011;62475;52.192;5.396;2022-12-18T09:08:06;22.08;;;11.00;;
74124;SDS011;62475;52.192;5.396;2022-12-18T09:10:32;24.75;;;11.45;;
74124;SDS011;62475;52.192;5.396;2022-12-18T09:12:57;21.50;;;9.70;;
74124;SDS011;62475;52.192;5.396;2022-12-18T09:15:24;24.58;;;11.70;;
74124;SDS011;62475;52.192;5.396;2022-12-18T09:17:49;18.70;;;10.02;;
74124;SDS011;62475;52.192;5.396;2022-12-18T09:20:15;21.23;;;9.93;;
74124;SDS011;62475;52.192;5.396;2022-12-18T09:22:41;24.00;;;10.80;;
74124;SDS011;62475;52.192;5.396;2022-12-18T09:25:07;20.70;;;10.60;;
74124;SDS011;62475;52.192;5.396;2022-12-18T09:27:33;21.75;;;10.68;;
74124;SDS011;62475;52.192;5.396;2022-12-18T09:29:59;21.10;;;9.98;;
74124;SDS011;62475;52.192;5.396;2022-12-18T09:32:24;20.50;;;9.85;;
74124;SDS011;62475;52.192;5.396;2022-12-18T09:34:50;24.33;;;11.38;;
74124;SDS011;62475;52.192;5.396;2022-12-18T09:37:15;19.30;;;10.18;;
74124;SDS011;62475;52.192;5.396;2022-12-18T09:39:41;16.52;;;8.77;;
74124;SDS011;62475;52.192;5.396;2022-12-18T09:42:08;17.27;;;9.33;;
74124;SDS011;62475;52.192;5.396;2022-12-18T09:44:43;19.27;;;8.57;;
74124;SDS011;62475;52.192;5.396;2022-12-18T09:49:53;22.10;;;9.90;;
74124;SDS011;62475;52.192;5.396;2022-12-18T09:52:26;22.85;;;10.07;;
74124;SDS011;62475;52.192;5.396;2022-12-18T09:55:08;16.48;;;8.82;;
74124;SDS011;62475;52.192;5.396;2022-12-18T09:57:45;16.85;;;8.32;;
74124;SDS011;62475;52.192;5.396;2022-12-18T10:00:21;23.08;;;9.40;;
74124;SDS011;62475;52.192;5.396;2022-12-18T10:02:49;19.38;;;9.10;;
74124;SDS011;62475;52.192;5.396;2022-12-18T10:05:17;16.60;;;8.02;;
74124;SDS011;62475;52.192;5.396;2022-12-18T10:08:05;19.77;;;9.18;;
74124;SDS011;62475;52.192;5.396;2022-12-18T10:10:39;17.73;;;8.63;;
74124;SDS011;62475;52.192;5.396;2022-12-18T10:16:03;18.55;;;9.23;;
74124;SDS011;62475;52.192;5.396;2022-12-18T10:18:53;14.45;;;7.60;;
74124;SDS011;62475;52.192;5.396;2022-12-18T10:21:47;16.13;;;7.75;;
74124;SDS011;62475;52.192;5.396;2022-12-18T10:24:46;16.55;;;7.93;;
74124;SDS011;62475;52.192;5.396;2022-12-18T10:27:21;14.18;;;5.70;;
74124;SDS011;62475;52.192;5.396;2022-12-18T10:29:49;17.20;;;8.10;;
74124;SDS011;62475;52.192;5.396;2022-12-18T10:32:16;15.65;;;7.82;;
74124;SDS011;62475;52.192;5.396;2022-12-18T10:34:50;14.30;;;7.47;;
74124;SDS011;62475;52.192;5.396;2022-12-18T10:37:17;14.98;;;6.93;;
74124;SDS011;62475;52.192;5.396;2022-12-18T10:39:44;17.80;;;8.02;;
74124;SDS011;62475;52.192;5.396;2022-12-18T10:42:18;15.30;;;8.02;;
74124;SDS011;62475;52.192;5.396;2022-12-18T10:44:44;14.93;;;8.00;;
74124;SDS011;62475;52.192;5.396;2022-12-18T10:47:15;14.23;;;7.13;;
74124;SDS011;62475;52.192;5.396;2022-12-18T10:49:47;12.32;;;6.13;;
74124;SDS011;62475;52.192;5.396;2022-12-18T10:52:19;12.73;;;6.90;;
74124;SDS011;62475;52.192;5.396;2022-12-18T10:54:47;13.27;;;8.23;;
74124;SDS011;62475;52.192;5.396;2022-12-18T10:57:16;13.77;;;6.88;;
74124;SDS011;62475;52.192;5.396;2022-12-18T10:59:52;16.83;;;7.40;;
74124;SDS011;62475;52.192;5.396;2022-12-18T11:05:01;15.55;;;6.80;;
74124;SDS011;62475;52.192;5.396;2022-12-18T11:07:47;14.45;;;6.53;;
74124;SDS011;62475;52.192;5.396;2022-12-18T11:10:16;12.48;;;6.22;;
74124;SDS011;62475;52.192;5.396;2022-12-18T11:12:46;14.85;;;6.60;;
74124;SDS011;62475;52.192;5.396;2022-12-18T11:15:20;17.10;;;8.60;;
74124;SDS011;62475;52.192;5.396;2022-12-18T11:17:49;16.05;;;6.40;;
74124;SDS011;62475;52.192;5.396;2022-12-18T11:20:25;18.77;;;8.80;;
74124;SDS011;62475;52.192;5.396;2022-12-18T11:23:00;16.35;;;7.57;;
74124;SDS011;62475;52.192;5.396;2022-12-18T11:25:27;12.13;;;5.40;;
74124;SDS011;62475;52.192;5.396;2022-12-18T11:30:28;14.43;;;7.22;;
74124;SDS011;62475;52.192;5.396;2022-12-18T11:35:32;16.77;;;7.35;;
74124;SDS011;62475;52.192;5.396;2022-12-18T11:38:14;13.30;;;6.65;;
74124;SDS011;62475;52.192;5.396;2022-12-18T11:40:47;13.32;;;5.55;;
74124;SDS011;62475;52.192;5.396;2022-12-18T11:43:29;9.85;;;5.22;;
74124;SDS011;62475;52.192;5.396;2022-12-18T11:46:13;13.45;;;6.13;;
74124;SDS011;62475;52.192;5.396;2022-12-18T11:48:49;14.40;;;6.95;;
74124;SDS011;62475;52.192;5.396;2022-12-18T11:51:22;13.20;;;6.55;;
74124;SDS011;62475;52.192;5.396;2022-12-18T11:54:00;16.80;;;6.32;;
74124;SDS011;62475;52.192;5.396;2022-12-18T11:56:34;20.55;;;6.82;;
74124;SDS011;62475;52.192;5.396;2022-12-18T12:01:45;12.57;;;7.38;;
74124;SDS011;62475;52.192;5.396;2022-12-18T12:04:21;13.60;;;6.18;;
74124;SDS011;62475;52.192;5.396;2022-12-18T12:09:39;11.10;;;5.93;;
74124;SDS011;62475;52.192;5.396;2022-12-18T12:20:52;9.52;;;4.43;;
74124;SDS011;62475;52.192;5.396;2022-12-18T12:23:22;13.52;;;6.68;;
74124;SDS011;62475;52.192;5.396;2022-12-18T12:26:21;13.95;;;6.00;;
74124;SDS011;62475;52.192;5.396;2022-12-18T12:34:48;13.40;;;6.07;;
74124;SDS011;62475;52.192;5.396;2022-12-18T12:40:22;14.73;;;6.60;;
74124;SDS011;62475;52.192;5.396;2022-12-18T12:42:52;9.80;;;4.88;;
74124;SDS011;62475;52.192;5.396;2022-12-18T12:45:52;15.00;;;6.68;;
74124;SDS011;62475;52.192;5.396;2022-12-18T12:48:22;12.63;;;6.47;;
74124;SDS011;62475;52.192;5.396;2022-12-18T12:50:49;12.63;;;6.50;;
74124;SDS011;62475;52.192;5.396;2022-12-18T12:53:29;13.38;;;7.07;;
74124;SDS011;62475;52.192;5.396;2022-12-18T12:55:58;16.98;;;7.45;;
74124;SDS011;62475;52.192;5.396;2022-12-18T13:04:40;17.13;;;7.60;;
74124;SDS011;62475;52.192;5.396;2022-12-18T13:07:16;15.82;;;6.72;;
74124;SDS011;62475;52.192;5.396;2022-12-18T13:10:46;18.27;;;7.68;;
74124;SDS011;62475;52.192;5.396;2022-12-18T13:15:39;18.75;;;8.35;;
74124;SDS011;62475;52.192;5.396;2022-12-18T13:23:34;22.80;;;9.00;;
74124;SDS011;62475;52.192;5.396;2022-12-18T13:30:58;16.77;;;8.85;;
74124;SDS011;62475;52.192;5.396;2022-12-18T13:39:11;20.48;;;8.88;;
74124;SDS011;62475;52.192;5.396;2022-12-18T13:41:47;18.38;;;7.57;;
74124;SDS011;62475;52.192;5.396;2022-12-18T13:44:31;13.63;;;7.35;;
74124;SDS011;62475;52.192;5.396;2022-12-18T13:46:57;17.33;;;8.02;;
74124;SDS011;62475;52.192;5.396;2022-12-18T13:52:14;15.75;;;7.47;;
74124;SDS011;62475;52.192;5.396;2022-12-18T13:54:42;17.08;;;7.88;;
74124;SDS011;62475;52.192;5.396;2022-12-18T14:02:52;24.58;;;9.00;;
74124;SDS011;62475;52.192;5.396;2022-12-18T14:05:24;17.17;;;8.77;;
74124;SDS011;62475;52.192;5.396;2022-12-18T14:07:51;14.35;;;7.72;;
74124;SDS011;62475;52.192;5.396;2022-12-18T14:10:17;16.65;;;7.35;;
74124;SDS011;62475;52.192;5.396;2022-12-18T14:12:47;19.33;;;8.32;;
74124;SDS011;62475;52.192;5.396;2022-12-18T14:18:01;17.45;;;7.93;;
74124;SDS011;62475;52.192;5.396;2022-12-18T14:20:39;18.92;;;8.57;;
74124;SDS011;62475;52.192;5.396;2022-12-18T14:25:57;19.10;;;9.25;;
74124;SDS011;62475;52.192;5.396;2022-12-18T14:28:23;18.75;;;9.07;;
74124;SDS011;62475;52.192;5.396;2022-12-18T14:30:50;17.52;;;9.13;;
74124;SDS011;62475;52.192;5.396;2022-12-18T14:33:18;19.48;;;9.57;;
74124;SDS011;62475;52.192;5.396;2022-12-18T14:41:13;13.82;;;7.00;;
74124;SDS011;62475;52.192;5.396;2022-12-18T14:43:41;16.27;;;7.63;;
74124;SDS011;62475;52.192;5.396;2022-12-18T14:49:01;16.02;;;7.72;;
74124;SDS011;62475;52.192;5.396;2022-12-18T14:52:03;13.65;;;8.05;;
74124;SDS011;62475;52.192;5.396;2022-12-18T14:54:31;15.50;;;7.03;;
74124;SDS011;62475;52.192;5.396;2022-12-18T14:57:00;16.10;;;7.40;;
74124;SDS011;62475;52.192;5.396;2022-12-18T14:59:26;18.48;;;7.95;;
74124;SDS011;62475;52.192;5.396;2022-12-18T15:04:28;19.15;;;8.45;;
74124;SDS011;62475;52.192;5.396;2022-12-18T15:07:16;17.52;;;7.45;;
74124;SDS011;62475;52.192;5.396;2022-12-18T15:09:43;18.30;;;7.45;;
74124;SDS011;62475;52.192;5.396;2022-12-18T15:12:35;15.95;;;7.35;;
74124;SDS011;62475;52.192;5.396;2022-12-18T15:15:03;17.88;;;7.68;;
74124;SDS011;62475;52.192;5.396;2022-12-18T15:17:29;17.17;;;8.00;;
74124;SDS011;62475;52.192;5.396;2022-12-18T15:19:59;17.98;;;7.28;;
74124;SDS011;62475;52.192;5.396;2022-12-18T15:22:31;19.88;;;7.82;;
74124;SDS011;62475;52.192;5.396;2022-12-18T15:24:59;20.08;;;8.40;;
74124;SDS011;62475;52.192;5.396;2022-12-18T15:30:01;14.85;;;7.38;;
74124;SDS011;62475;52.192;5.396;2022-12-18T15:37:34;15.25;;;7.85;;
74124;SDS011;62475;52.192;5.396;2022-12-18T15:39:59;16.38;;;7.68;;
74124;SDS011;62475;52.192;5.396;2022-12-18T15:42:25;13.73;;;7.63;;
74124;SDS011;62475;52.192;5.396;2022-12-18T15:45:13;14.85;;;7.10;;
74124;SDS011;62475;52.192;5.396;2022-12-18T15:47:39;19.35;;;9.77;;
74124;SDS011;62475;52.192;5.396;2022-12-18T15:50:05;20.25;;;8.45;;
74124;SDS011;62475;52.192;5.396;2022-12-18T15:52:36;20.45;;;8.10;;
74124;SDS011;62475;52.192;5.396;2022-12-18T15:55:10;18.40;;;8.18;;
74124;SDS011;62475;52.192;5.396;2022-12-18T15:57:57;18.63;;;8.45;;
74124;SDS011;62475;52.192;5.396;2022-12-18T16:00:22;16.25;;;7.03;;
74124;SDS011;62475;52.192;5.396;2022-12-18T16:02:48;18.08;;;7.63;;
74124;SDS011;62475;52.192;5.396;2022-12-18T16:05:14;16.48;;;7.03;;
74124;SDS011;62475;52.192;5.396;2022-12-18T16:07:40;18.60;;;8.40;;
74124;SDS011;62475;52.192;5.396;2022-12-18T16:10:05;15.20;;;7.82;;
74124;SDS011;62475;52.192;5.396;2022-12-18T16:12:31;17.27;;;7.97;;
74124;SDS011;62475;52.192;5.396;2022-12-18T16:14:57;16.45;;;8.23;;
74124;SDS011;62475;52.192;5.396;2022-12-18T16:17:22;14.32;;;7.05;;
74124;SDS011;62475;52.192;5.396;2022-12-18T16:19:49;18.33;;;7.63;;
74124;SDS011;62475;52.192;5.396;2022-12-18T16:24:46;16.00;;;8.30;;
74124;SDS011;62475;52.192;5.396;2022-12-18T16:27:11;18.15;;;8.48;;
74124;SDS011;62475;52.192;5.396;2022-12-18T16:29:37;23.33;;;9.45;;
74124;SDS011;62475;52.192;5.396;2022-12-18T16:32:02;17.88;;;8.48;;
74124;SDS011;62475;52.192;5.396;2022-12-18T16:34:29;15.60;;;7.30;;
74124;SDS011;62475;52.192;5.396;2022-12-18T16:37:03;18.13;;;8.43;;
74124;SDS011;62475;52.192;5.396;2022-12-18T16:39:30;21.00;;;9.60;;
74124;SDS011;62475;52.192;5.396;2022-12-18T16:41:57;19.83;;;9.27;;
74124;SDS011;62475;52.192;5.396;2022-12-18T16:44:25;18.63;;;7.70;;
74124;SDS011;62475;52.192;5.396;2022-12-18T16:46:50;18.58;;;9.05;;
74124;SDS011;62475;52.192;5.396;2022-12-18T16:49:16;16.73;;;8.25;;
74124;SDS011;62475;52.192;5.396;2022-12-18T16:51:43;16.92;;;7.90;;
74124;SDS011;62475;52.192;5.396;2022-12-18T16:54:11;20.02;;;8.57;;